createdAt,value
2022-09-13T00:03:07.418Z,100564.69
2022-09-13T00:08:08.078Z,100563.16
2022-09-13T00:13:08.401Z,100566.13
2022-09-13T00:18:07.146Z,100561.22
2022-09-13T00:23:07.150Z,100562.22
2022-09-13T00:28:06.209Z,100558.50
2022-09-13T00:33:04.981Z,100564.66
2022-09-13T00:38:03.655Z,100557.94
2022-09-13T00:43:03.645Z,100562.75
2022-09-13T00:48:06.469Z,100557.28
2022-09-13T00:53:10.799Z,100558.78
2022-09-13T00:58:14.456Z,100558.00
2022-09-13T01:03:16.257Z,100553.59
2022-09-13T01:08:23.104Z,100548.00
2022-09-13T01:13:25.937Z,100546.59
2022-09-13T01:18:25.085Z,100554.94
2022-09-13T01:24:00.525Z,100546.50
2022-09-13T01:29:37.451Z,100553.63
2022-09-13T01:34:52.635Z,100545.41
2022-09-13T01:40:07.546Z,100541.22
2022-09-13T01:45:19.200Z,100544.22
2022-09-13T01:50:23.743Z,100542.84
2022-09-13T01:55:30.041Z,100534.47
2022-09-13T02:00:32.253Z,100539.13
2022-09-13T02:05:38.861Z,100535.19
2022-09-13T02:10:42.834Z,100527.31
2022-09-13T02:15:46.069Z,100539.28
2022-09-13T02:20:50.557Z,100531.78
2022-09-13T02:25:52.369Z,100535.44
2022-09-13T02:30:54.464Z,100532.53
2022-09-13T02:36:01.147Z,100538.25
2022-09-13T02:41:04.254Z,100535.44
2022-09-13T02:46:23.339Z,100537.25
2022-09-13T02:51:31.596Z,100539.22
2022-09-13T02:56:39.735Z,100543.28
2022-09-13T03:01:41.206Z,100546.91
2022-09-13T03:06:42.063Z,100536.84
2022-09-13T03:12:01.773Z,100534.88
2022-09-13T03:17:20.427Z,100533.75
2022-09-13T03:22:56.051Z,100529.84
2022-09-13T03:28:07.003Z,100523.22
2022-09-13T03:33:14.010Z,100526.88
2022-09-13T03:38:21.003Z,100524.75
2022-09-13T03:43:25.776Z,100526.94
2022-09-13T03:48:24.932Z,100525.81
2022-09-13T03:53:28.445Z,100521.28
2022-09-13T03:58:27.729Z,100526.66
2022-09-13T04:03:26.777Z,100532.25
2022-09-13T04:08:26.842Z,100540.25
2022-09-13T04:13:26.047Z,100543.91
2022-09-13T04:18:24.726Z,100542.31
2022-09-13T04:23:23.374Z,100539.94
2022-09-13T04:28:23.772Z,100533.78
2022-09-13T04:33:23.324Z,100537.09
2022-09-13T04:38:21.905Z,100543.78
2022-09-13T04:43:20.573Z,100541.34
2022-09-13T04:48:20.658Z,100548.91
2022-09-13T04:53:19.339Z,100565.88
2022-09-13T04:58:18.867Z,100561.84
2022-09-13T05:03:17.540Z,100561.84
2022-09-13T05:08:20.128Z,100576.72
2022-09-13T05:13:18.527Z,100577.63
2022-09-13T05:18:17.169Z,100577.38
2022-09-13T05:23:17.160Z,100573.09
2022-09-13T05:28:15.817Z,100580.09
2022-09-13T05:33:14.497Z,100590.09
2022-09-13T05:38:13.311Z,100588.75
2022-09-13T05:43:13.471Z,100598.75
2022-09-13T05:48:12.445Z,100606.34
2022-09-13T05:53:11.002Z,100610.19
2022-09-13T05:58:09.811Z,100615.47
2022-09-13T06:03:10.636Z,100606.19
2022-09-13T06:08:09.365Z,100621.63
2022-09-13T06:13:08.214Z,100620.22
2022-09-13T06:18:06.922Z,100614.47
2022-09-13T06:23:07.071Z,100617.75
2022-09-13T06:28:05.918Z,100627.41
2022-09-13T06:33:04.870Z,100635.75
2022-09-13T06:38:03.700Z,100639.22
2022-09-13T06:43:04.017Z,100642.75
2022-09-13T06:48:03.586Z,100651.69
2022-09-13T06:53:02.682Z,100647.41
2022-09-13T06:58:01.575Z,100645.66
2022-09-13T07:03:02.340Z,100647.91
2022-09-13T07:08:01.434Z,100641.69
2022-09-13T07:13:00.516Z,100644.69
2022-09-13T07:17:59.721Z,100648.31
2022-09-13T07:23:00.107Z,100659.28
2022-09-13T07:27:59.129Z,100653.63
2022-09-13T07:32:58.114Z,100656.38
2022-09-13T07:37:57.194Z,100654.47
2022-09-13T07:42:57.885Z,100669.78
2022-09-13T07:47:58.454Z,100663.56
2022-09-13T07:52:57.639Z,100656.53
2022-09-13T07:57:59.766Z,100649.47
2022-09-13T08:03:01.393Z,100652.72
2022-09-13T08:08:07.824Z,100639.00
2022-09-13T08:13:24.294Z,100641.50
2022-09-13T08:18:24.056Z,100626.47
2022-09-13T08:23:23.958Z,100629.44
2022-09-13T08:28:27.868Z,100618.47
2022-09-13T08:33:46.408Z,100616.31
2022-09-13T08:38:50.207Z,100612.97
2022-09-13T08:44:00.567Z,100623.88
2022-09-13T08:49:05.997Z,100622.47
2022-09-13T08:54:25.250Z,100619.81
2022-09-13T09:00:23.525Z,100612.25
2022-09-13T09:06:28.086Z,100605.56
2022-09-13T09:11:42.970Z,100604.50
2022-09-13T09:17:23.788Z,100590.28
2022-09-13T09:22:52.443Z,100572.41
2022-09-13T09:28:36.669Z,100564.50
2022-09-13T09:34:31.900Z,100558.16
2022-09-13T09:45:52.165Z,100546.25
2022-09-13T09:51:04.859Z,100551.03
2022-09-13T09:56:44.371Z,100547.31
2022-09-13T10:01:48.255Z,100539.22
2022-09-13T10:06:47.838Z,100529.13
2022-09-13T10:12:04.247Z,100533.34
2022-09-13T10:17:26.768Z,100525.59
2022-09-13T10:22:34.741Z,100519.50
2022-09-13T10:27:44.113Z,100505.72
2022-09-13T10:33:06.775Z,100504.47
2022-09-13T10:39:16.650Z,100501.84
2022-09-13T10:44:31.500Z,100500.63
2022-09-13T10:49:37.954Z,100494.22
2022-09-13T10:54:50.717Z,100482.63
2022-09-13T11:00:00.647Z,100472.03
2022-09-13T11:05:38.757Z,100485.22
2022-09-13T11:10:49.640Z,100466.28
2022-09-13T11:22:59.686Z,100469.22
2022-09-13T11:41:28.255Z,100443.22
2022-09-13T11:46:34.442Z,100440.19
2022-09-13T11:52:14.160Z,100444.03
2022-09-13T11:58:02.066Z,100436.13
2022-09-13T12:03:08.235Z,100429.38
2022-09-13T12:08:35.283Z,100425.16
2022-09-13T12:14:11.148Z,100428.38
2022-09-13T12:19:38.299Z,100430.66
2022-09-13T12:24:50.301Z,100428.41
2022-09-13T12:30:10.428Z,100436.47
2022-09-13T12:35:32.888Z,100424.13
2022-09-13T12:41:15.158Z,100452.91
2022-09-13T12:46:47.037Z,100421.44
2022-09-13T12:52:10.916Z,100425.75
2022-09-13T12:57:24.370Z,100417.94
2022-09-13T13:02:35.028Z,100403.69
2022-09-13T13:07:39.271Z,100401.25
2022-09-13T13:12:41.864Z,100421.09
2022-09-13T13:18:09.924Z,100414.31
2022-09-13T13:23:27.403Z,100404.75
2022-09-13T13:29:08.299Z,100412.84
2022-09-13T13:34:43.851Z,100414.91
2022-09-13T13:39:45.801Z,100415.28
2022-09-13T13:45:07.899Z,100418.47
2022-09-13T13:50:17.541Z,100427.63
2022-09-13T13:55:41.443Z,100413.38
2022-09-13T14:00:50.547Z,100424.75
2022-09-13T14:05:59.022Z,100428.91
2022-09-13T14:11:07.542Z,100432.81
2022-09-13T14:16:18.832Z,100428.38
2022-09-13T14:21:26.872Z,100425.59
2022-09-13T14:26:32.858Z,100421.88
2022-09-13T14:31:35.585Z,100427.53
2022-09-13T14:36:40.117Z,100432.53
2022-09-13T14:41:42.042Z,100425.69
2022-09-13T14:46:45.111Z,100420.28
2022-09-13T14:51:49.152Z,100426.25
2022-09-13T14:56:57.968Z,100425.19
2022-09-13T15:02:07.891Z,100416.00
2022-09-13T15:07:24.884Z,100423.47
2022-09-13T15:12:27.975Z,100415.88
2022-09-13T15:17:29.995Z,100428.00
2022-09-13T15:22:35.201Z,100421.22
2022-09-13T15:27:45.660Z,100431.25
2022-09-13T15:32:49.697Z,100438.53
2022-09-13T15:37:48.639Z,100434.38
2022-09-13T15:42:54.399Z,100431.59
2022-09-13T15:47:57.305Z,100447.38
2022-09-13T15:53:08.982Z,100443.78
2022-09-13T15:58:13.618Z,100443.25
2022-09-13T16:03:18.375Z,100461.28
2022-09-13T16:08:17.614Z,100459.34
2022-09-13T16:13:18.457Z,100459.13
2022-09-13T16:18:19.396Z,100457.72
2022-09-13T16:23:31.635Z,100456.16
2022-09-13T16:28:32.908Z,100461.59
2022-09-13T16:33:45.806Z,100463.03
2022-09-13T16:38:48.332Z,100473.91
2022-09-13T16:43:47.875Z,100474.09
2022-09-13T16:49:06.404Z,100474.34
2022-09-13T16:54:10.653Z,100472.28
2022-09-13T16:59:10.155Z,100484.47
2022-09-13T17:04:11.745Z,100492.78
2022-09-13T17:09:11.068Z,100504.78
2022-09-13T17:14:15.815Z,100513.28
2022-09-13T17:19:44.564Z,100518.53
2022-09-13T17:24:48.106Z,100534.25
2022-09-13T17:29:47.257Z,100537.50
2022-09-13T17:34:48.752Z,100534.84
2022-09-13T17:39:50.981Z,100542.66
2022-09-13T17:44:58.194Z,100560.50
2022-09-13T17:50:14.964Z,100569.63
2022-09-13T17:55:16.900Z,100581.22
2022-09-13T18:00:20.756Z,100583.06
2022-09-13T18:05:26.760Z,100600.34
2022-09-13T18:10:53.033Z,100600.25
2022-09-13T18:15:58.444Z,100610.91
2022-09-13T18:20:59.898Z,100614.22
2022-09-13T18:26:31.948Z,100620.09
2022-09-13T18:31:32.391Z,100623.72
2022-09-13T18:36:35.117Z,100629.06
2022-09-13T18:41:36.482Z,100645.09
2022-09-13T18:46:37.623Z,100643.09
2022-09-13T18:51:41.566Z,100638.09
2022-09-13T18:56:41.618Z,100647.25
2022-09-13T19:01:43.179Z,100647.91
2022-09-13T19:06:46.062Z,100647.69
2022-09-13T19:11:48.349Z,100645.94
2022-09-13T19:16:50.698Z,100634.81
2022-09-13T19:21:53.391Z,100650.38
2022-09-13T19:26:55.656Z,100642.88
2022-09-13T19:32:03.536Z,100639.03
2022-09-13T19:37:04.401Z,100633.59
2022-09-13T19:42:03.640Z,100629.44
2022-09-13T19:52:25.328Z,100640.50
2022-09-13T19:57:29.639Z,100632.91
2022-09-13T20:02:29.147Z,100629.00
2022-09-13T20:07:34.019Z,100633.97
2022-09-13T20:12:42.237Z,100643.94
2022-09-13T20:17:42.113Z,100641.28
2022-09-13T20:22:46.206Z,100641.44
2022-09-13T20:27:46.639Z,100639.06
2022-09-13T20:32:48.193Z,100645.72
2022-09-13T20:37:49.375Z,100658.22
2022-09-13T20:42:49.499Z,100660.06
2022-09-13T20:47:48.818Z,100667.50
2022-09-13T20:52:52.542Z,100688.19
2022-09-13T20:57:51.812Z,100679.94
2022-09-13T21:02:51.526Z,100681.19
2022-09-13T21:08:09.739Z,100683.97
2022-09-13T21:13:09.677Z,100676.78
2022-09-13T21:18:09.802Z,100675.66
2022-09-13T21:23:10.870Z,100674.81
2022-09-13T21:28:11.064Z,100673.13
2022-09-13T21:33:11.623Z,100673.44
2022-09-13T21:38:14.406Z,100663.41
2022-09-13T21:43:13.477Z,100662.03
2022-09-13T21:48:14.470Z,100663.88
2022-09-13T21:53:16.199Z,100673.19
2022-09-13T21:58:17.199Z,100671.69
2022-09-13T22:03:16.137Z,100669.28
2022-09-13T22:08:17.362Z,100670.69
2022-09-13T22:13:17.209Z,100661.00
2022-09-13T22:18:30.003Z,100648.19
2022-09-13T22:23:31.149Z,100664.06
2022-09-13T22:28:40.361Z,100664.06
2022-09-13T22:33:43.775Z,100671.97
2022-09-13T22:38:46.159Z,100672.56
2022-09-13T22:43:45.150Z,100680.59
2022-09-13T22:48:44.953Z,100684.53
2022-09-13T22:53:46.866Z,100688.19
2022-09-13T22:58:46.754Z,100691.28
2022-09-13T23:03:47.123Z,100705.22
2022-09-13T23:08:48.612Z,100691.19
2022-09-13T23:13:49.210Z,100690.59
2022-09-13T23:18:51.751Z,100693.38
2022-09-13T23:23:55.591Z,100681.00
2022-09-13T23:28:56.981Z,100699.41
2022-09-13T23:33:57.869Z,100699.66
2022-09-13T23:39:00.224Z,100691.09
2022-09-13T23:43:59.094Z,100697.13
2022-09-13T23:48:58.455Z,100694.44
2022-09-13T23:54:00.759Z,100696.38
2022-09-13T23:59:04.949Z,100693.03
